Weather observations for the past three days for
Fremont Municipal Airport
Imperial (Metric)
Date Time (cdt) Wind (mph) Vis. (mi.) Weather Sky Cond. Temperature (ºF) Relative Humidity Wind Chill (°F) Heat Index (°F) Pressure Precipitation (in)
Air Dwpt 6 hour altimeter (in) sea level (mb) 1 hr 3 hr 6 hr
Max. Min.
07 16:55 NW 15 G 23 10.00 Fair CLR 70.7 30 22% 29.79 0.0
07 16:35 NW 15 G 20 10.00 Fair CLR 70.5 30.7 23% 29.8 0.0
07 16:15 NW 13 G 17 10.00 Fair CLR 71.1 31.5 23% 29.8 0.0
07 15:55 W 10 G 20 10.00 Fair CLR 71.1 30.4 22% 29.8 0.0
07 15:35 NW 8 G 20 10.00 Partly Cloudy SCT090 70.9 31.6 23% 29.81 0.0
07 15:15 NW 9 G 23 10.00 Partly Cloudy SCT090 70 30.7 23% 29.82 0.0
07 14:35 NW 7 10.00 Partly Cloudy SCT090 69.1 31.8 25% 29.82 0.0
07 14:15 Calm 10.00 Fair CLR 68.4 34.9 29% 29.81 0.0
07 13:55 NW 8 10.00 Fair CLR 67.6 36.1 31% 29.82 0.0
07 13:35 SW 6 10.00 Fair CLR 66.2 37.4 35% 29.82 0.0
07 13:15 W 8 10.00 Fair CLR 65.7 36.9 35% 29.82 0.0
07 12:55 W 3 10.00 Fair CLR 65.3 37 65.8 46 35% 29.83 0.0
07 12:15 W 7 10.00 Fair CLR 64.9 38.7 38% 29.84 0.0
07 11:55 Calm 10.00 Fair CLR 63.1 36.9 38% 29.85 0.0
07 11:35 W 9 10.00 Fair CLR 63.3 37 38% 29.85 0.0
07 10:55 W 8 10.00 Fair CLR 61.9 36.3 39% 29.86 0.0
07 10:35 Calm 10.00 Fair CLR 60.3 36.5 41% 29.86 0.0
07 10:15 W 3 10.00 Fair CLR 59.5 36.3 42% 29.86 0.0
07 09:55 SW 5 10.00 Fair CLR 58.8 36.7 44% 29.87 0.0
07 09:35 SW 7 10.00 Fair CLR 57.7 37.4 47% 29.88 0.0
07 09:15 SW 7 10.00 Fair CLR 56.3 38.1 51% 29.88 0.0
07 08:55 SW 10 10.00 Fair CLR 54.3 38.5 55% 29.88 0.0
07 08:35 SW 10 10.00 Fair CLR 52.9 37.9 57% 29.88 0.0
07 08:15 SW 9 10.00 Fair CLR 50.9 37.9 61% 29.88 0.0
07 07:55 SW 8 10.00 Fair CLR 49.5 38.1 65% 47 29.88 0.0
07 07:35 SW 7 10.00 Fair CLR 48 37.6 67% 45 29.88 0.0
07 07:15 SW 9 10.00 Fair CLR 46.8 37.4 70% 43 29.88 0.0
07 06:55 SW 8 10.00 Fair CLR 46.2 36.9 48.9 45 70% 43 29.88 0.0
07 06:35 SW 7 10.00 Fair CLR 45.7 36.5 70% 43 29.89 0.0
07 05:55 SW 10 10.00 Fair CLR 45.7 36.1 69% 41 29.89 0.0
07 05:35 SW 9 10.00 Fair CLR 45.5 36.5 71% 41 29.89 0.0
07 05:15 SW 8 10.00 Fair CLR 45.7 36.5 70% 42 29.89 0.0
07 04:55 SW 8 10.00 Fair CLR 45.3 36.5 71% 42 29.89 0.0
07 04:35 SW 7 10.00 Fair CLR 45.5 36.5 71% 42 29.9 0.0
07 04:15 SW 6 10.00 Fair CLR 45.1 36.1 71% 43 29.9 0.0
07 03:55 SW 7 10.00 Fair CLR 45.3 35.8 69% 42 29.91 0.0
07 03:35 SW 6 10.00 Fair CLR 45.3 34.9 67% 43 29.92 0.0
07 03:15 SW 6 10.00 Fair CLR 45.5 34.2 65% 43 29.92 0.0
07 02:55 SW 7 10.00 Fair CLR 46 33.8 62% 43 29.93 0.0
07 02:35 SW 5 10.00 Fair CLR 45.7 33.6 63% 44 29.94 0.0
07 02:15 SW 7 10.00 Fair CLR 46.8 32.7 58% 44 29.95 0.0
07 01:55 SW 6 10.00 Fair CLR 47.3 32 55% 45 29.95 0.0
07 01:35 SW 6 10.00 Fair CLR 47.5 32 55% 45 29.96 0.0
07 01:15 SW 7 10.00 Fair CLR 48.2 31.1 52% 46 29.97 0.0
07 00:55 SW 7 10.00 Fair CLR 48.9 29.7 58.5 41.5 48% 46 29.97 0.0
07 00:35 SW 6 10.00 Fair CLR 47.3 29.3 50% 45 29.97 0.0
07 00:15 S 5 10.00 Fair CLR 44.6 32.9 64% 43 29.97 0.0
06 23:35 S 5 10.00 Partly Cloudy SCT110 44.6 33.3 65% 43 29.99 0.0
06 23:15 Calm 10.00 Partly Cloudy SCT110 44.2 31.8 62% 29.99 0.0
06 22:55 Calm 10.00 Mostly Cloudy BKN110 46.2 30 53% 29.99 0.0
06 22:35 Calm 10.00 Mostly Cloudy BKN110 45.1 30.7 57% 30 0.0
06 22:15 Calm 10.00 Mostly Cloudy BKN110 47.3 31.3 54% 30 0.0
06 21:55 Calm 10.00 Mostly Cloudy BKN100 47.7 30.2 51% 30 0.0
06 21:35 Calm 7.00 Mostly Cloudy BKN100 49.3 27 42% 30 0.0
06 20:55 Calm 10.00 Mostly Cloudy BKN100 52.2 23.7 33% 29.99 0.0
06 20:35 Calm 10.00 Overcast OVC100 53.6 22.3 29% 29.99 0.0
06 20:15 NW 5 10.00 Mostly Cloudy BKN100 54.3 21.6 28% 29.99 0.0
06 19:55 NW 3 10.00 Partly Cloudy SCT100 56.3 21.9 26% 29.99 0.0
06 19:35 W 6 10.00 Mostly Cloudy BKN100 57 21.9 26% 29.99 0.0
06 19:15 W 7 10.00 Mostly Cloudy BKN100 58.5 21.9 24% 30 0.0
06 18:55 NW 6 10.00 Partly Cloudy SCT100 58.1 21.7 61 54 24% 30 0.0
06 18:35 NW 9 10.00 Partly Cloudy SCT100 59 21.9 24% 30.01 0.0
06 18:15 NW 14 10.00 Partly Cloudy SCT100 60.1 21.4 22% 30.01 0.0
06 17:55 NW 7 10.00 Overcast OVC100 60.6 21.2 22% 30.01 0.0
06 17:35 NW 9 10.00 Mostly Cloudy BKN090 59.2 21.4 23% 30.01 0.0
06 17:15 W 12 G 17 10.00 Mostly Cloudy BKN090 60.8 22.1 23% 30.02 0.0
06 16:55 NW 8 10.00 Mostly Cloudy BKN090 59.5 20.7 22% 30.02 0.0
06 16:35 W 16 G 24 10.00 Mostly Cloudy BKN090 60.1 21.6 23% 30.03 0.0
06 16:15 NW 12 G 22 10.00 Mostly Cloudy BKN090 58.8 21.9 24% 30.04 0.0
06 15:55 NW 16 G 22 10.00 Mostly Cloudy BKN090 58.5 21.9 24% 30.05 0.0
06 15:35 W 6 10.00 Mostly Cloudy BKN090 58.8 23.2 25% 30.05 0.0
06 15:15 W 14 G 21 10.00 Mostly Cloudy BKN090 57.9 22.5 25% 30.06 0.0
06 14:55 NW 12 G 15 10.00 Mostly Cloudy BKN090 59 23 25% 30.06 0.0
06 14:35 NW 13 G 21 10.00 Mostly Cloudy BKN090 58.8 23 25% 30.06 0.0
06 14:15 NW 14 G 21 10.00 Partly Cloudy SCT090 57.6 22.3 25% 30.07 0.0
06 13:55 NW 14 G 21 10.00 Partly Cloudy SCT090 56.1 21.6 26% 30.07 0.0
06 13:35 NW 16 G 22 10.00 Partly Cloudy SCT075 56.3 22.1 26% 30.08 0.0
06 13:15 NW 18 G 23 10.00 Mostly Cloudy BKN075 54.1 21.2 28% 30.09 0.0
06 12:55 NW 15 G 21 10.00 Mostly Cloudy BKN075 54.1 22.5 55.8 34 29% 30.09 0.0
06 12:35 NW 17 G 23 10.00 Mostly Cloudy BKN075 55.2 23.2 29% 30.1 0.0
06 12:15 W 8 G 17 10.00 Mostly Cloudy BKN075 54.1 22.3 29% 30.1 0.0
06 11:55 NW 10 G 21 10.00 Partly Cloudy SCT075 52.9 22.6 31% 30.11 0.0
06 11:35 W 7 G 20 10.00 Partly Cloudy SCT070 SCT085 54 22.3 29% 30.11 0.0
06 11:15 NW 10 G 17 10.00 Partly Cloudy SCT065 53.2 22.5 30% 30.11 0.0
06 10:55 W 15 G 21 10.00 Mostly Cloudy BKN065 52.2 22.6 32% 30.11 0.0
06 10:35 NW 13 G 23 10.00 Mostly Cloudy BKN065 51.3 23.2 33% 30.1 0.0
06 10:15 NW 6 10.00 Partly Cloudy SCT065 51.1 24.3 35% 30.11 0.0
06 09:55 NW 5 10.00 Fair CLR 50.2 24.6 37% 30.11 0.0
06 09:35 NW 3 10.00 Fair CLR 48.9 25.9 41% 30.11 0.0
06 09:15 W 5 10.00 Fair CLR 47.1 25.3 43% 46 30.11 0.0
06 08:55 W 5 10.00 Fair CLR 45.7 25.9 46% 44 30.11 0.0
06 08:35 W 5 10.00 Fair CLR 44.1 26.6 50% 42 30.1 0.0
06 08:15 NW 6 10.00 Fair CLR 41.7 26.1 54% 38 30.09 0.0
06 07:55 W 5 10.00 Fair CLR 39.2 26.2 60% 36 30.1 0.0
06 07:35 W 5 10.00 Fair CLR 37 26.8 66% 34 30.09 0.0
06 07:15 W 7 10.00 Fair CLR 35.4 25.7 68% 30 30.08 0.0
06 06:55 W 5 10.00 Fair CLR 33.6 24.6 42.6 32 70% 30 30.07 0.0
06 06:35 W 5 10.00 Fair CLR 34.5 23.9 65% 31 30.06 0.0
06 06:15 W 3 10.00 Fair CLR 32 24.6 74% 30.06 0.0
06 05:55 W 3 10.00 Fair CLR 34.3 24.1 66% 30.06 0.0
06 05:35 W 5 10.00 Fair CLR 36.3 24.6 63% 33 30.05 0.0
06 05:15 W 5 10.00 Fair CLR 36.3 24.6 63% 33 30.05 0.0
06 04:55 Calm 10.00 Fair CLR 36 25 64% 30.05 0.0
06 04:35 Calm 10.00 Fair CLR 36.7 25.2 63% 30.04 0.0
06 04:15 N 3 10.00 Fair CLR 36.1 25.3 65% 30.04 0.0
06 03:55 N 5 10.00 Fair CLR 37.4 25.5 62% 34 30.03 0.0
06 03:35 NW 3 10.00 Fair CLR 39.7 24.8 55% 30.03 0.0
06 03:15 NW 3 10.00 Fair CLR 39.6 25.7 58% 30.03 0.0
06 02:55 W 3 10.00 Fair CLR 39.7 25.9 58% 30.03 0.0
06 02:35 W 3 10.00 Fair CLR 40.3 25.5 56% 30.02 0.0
06 02:15 Calm 10.00 Fair CLR 41 25.3 54% 30.02 0.0
06 01:55 Calm 10.00 Fair CLR 41.9 25.7 53% 30.02 0.0
06 01:35 Calm 10.00 Fair CLR 41.5 27.1 57% 30.01 0.0
06 01:15 N 5 10.00 Fair CLR 42.3 26.6 54% 40 30.01 0.0
06 00:55 NW 5 10.00 Fair CLR 42.4 27.1 53.2 40.8 55% 40 30.01 0.0
06 00:35 NW 3 10.00 Fair CLR 41.7 26.6 55% 30.01 0.0
06 00:15 NW 5 10.00 Fair CLR 42.6 26.2 52% 40 30.01 0.0
05 23:55 N 5 10.00 Fair CLR 43.3 27.1 53% 41 29.99 0.0
05 23:35 N 3 10.00 Fair CLR 43.5 27.7 54% 29.99 0.0
05 23:15 NW 3 10.00 Fair CLR 43.9 28 54% 29.99 0.0
05 22:55 NW 3 10.00 Fair CLR 44.1 26.8 51% 29.99 0.0
05 22:35 NW 5 10.00 Fair CLR 44.2 26.2 49% 42 29.99 0.0
05 22:15 NW 6 10.00 Fair CLR 45 25.7 47% 42 29.97 0.0
05 21:55 N 6 10.00 Fair CLR 46.2 25.5 44% 44 29.97 0.0
05 21:35 N 6 10.00 Fair CLR 47.5 24.3 40% 45 29.96 0.0
05 21:15 N 8 10.00 Fair CLR 49.1 22.1 35% 46 29.95 0.0
05 20:55 N 9 10.00 Fair CLR 50 21.9 33% 47 29.94 0.0
05 20:35 N 9 10.00 Fair CLR 50.5 21.7 32% 29.94 0.0
05 20:15 N 13 10.00 Fair CLR 51.8 21.2 30% 29.93 0.0
05 19:55 N 17 G 23 10.00 Fair CLR 52.3 21.4 30% 29.93 0.0
05 19:35 N 15 G 20 10.00 Fair CLR 52.7 22.6 31% 29.92 0.0
05 19:15 N 14 10.00 Fair CLR 53.1 22.8 31% 29.92 0.0
05 18:55 NW 14 10.00 Fair CLR 53.2 24.1 58.3 53.2 32% 29.92 0.0
05 18:35 NW 18 G 22 10.00 Partly Cloudy SCT120 53.6 23.9 32% 29.92 0.0
05 18:15 NW 17 10.00 Partly Cloudy SCT120 54.3 24.6 32% 29.91 0.0
05 17:55 NW 15 10.00 Fair CLR 54.7 25 32% 29.91 0.0
05 17:35 NW 17 G 23 10.00 Fair CLR 55.4 23.7 29% 29.91 0.0
05 17:15 N 17 G 25 10.00 Fair CLR 56.7 24.6 29% 29.9 0.0
05 16:55 NW 18 G 25 10.00 Partly Cloudy SCT080 57.2 24.8 29% 29.9 0.0
05 16:35 NW 16 G 26 10.00 Partly Cloudy SCT080 56.8 25.9 30% 29.9 0.0
05 16:15 NW 14 G 22 10.00 Fair CLR 56.7 25.3 30% 29.91 0.0
05 15:55 NW 18 G 24 10.00 Fair CLR 57.4 26.4 31% 29.92 0.0
05 15:35 NW 12 G 24 10.00 Partly Cloudy SCT080 57.2 27.3 32% 29.92 0.0
05 15:15 NW 15 G 22 10.00 Mostly Cloudy BKN080 57.7 27.1 31% 29.92 0.0
05 14:55 NW 14 G 24 10.00 Mostly Cloudy BKN075 57 28.2 33% 29.93 0.0
05 14:35 NW 14 G 20 10.00 Partly Cloudy SCT075 57.7 29.5 34% 29.93 0.0
05 14:15 W 12 G 21 10.00 Partly Cloudy SCT070 56.5 27.9 33% 29.94 0.0
05 13:55 NW 17 G 21 10.00 Partly Cloudy SCT070 56.5 28 34% 29.94 0.0
05 13:35 NW 7 10.00 Partly Cloudy SCT075 55.9 27.3 33% 29.94 0.0
05 13:15 NW 10 G 20 10.00 Partly Cloudy SCT075 SCT085 56.3 28.2 34% 29.95 0.0
05 12:55 NW 5 G 20 10.00 Fair CLR 55.4 27.3 56.1 41.4 34% 29.95 0.0
05 12:35 NW 10 G 18 10.00 Fair CLR 56.1 28.9 35% 29.94 0.0
05 12:15 NW 9 10.00 Fair CLR 54.1 27.3 36% 29.95 0.0
05 11:55 N 12 10.00 Fair CLR 54.7 28.6 37% 29.95 0.0
05 11:35 N 7 10.00 Partly Cloudy SCT085 54 29.3 39% 29.96 0.0
05 11:15 N 6 10.00 Partly Cloudy SCT095 52.9 30.7 43% 29.95 0.0
05 10:35 N 3 10.00 Fair CLR 50 32.7 52% 29.94 0.0
05 10:15 N 7 10.00 Fair CLR 48.9 33.3 55% 46 29.94 0.0
05 09:55 NW 6 10.00 Partly Cloudy SCT110 47.7 35.1 62% 45 29.94 0.0
05 09:35 NW 9 10.00 Mostly Cloudy SCT100 BKN120 46.8 34.3 62% 43 29.93 0.0
05 09:15 NW 3 10.00 Overcast BKN100 OVC120 45.9 35.8 68% 29.94 0.0
05 08:55 W 3 10.00 Partly Cloudy SCT120 45.5 35.4 68% 29.93 0.0
05 08:35 NW 5 10.00 Partly Cloudy SCT120 45 35.8 70% 43 29.92 0.0
05 08:15 W 6 10.00 Overcast OVC120 44.6 36 72% 42 29.92 0.0
05 07:55 W 3 10.00 Overcast OVC120 44.6 36.3 73% 29.9 0.0
05 07:35 W 3 10.00 Mostly Cloudy BKN120 43.9 36.1 74% 29.89 0.0
05 07:15 W 3 10.00 Fair CLR 42.4 36 78% 29.88 0.0
05 06:55 NW 5 10.00 Fair CLR 41.4 36.5 48.7 41 83% 39 29.86 0.0
05 06:35 NW 3 10.00 Fair CLR 41.9 37.8 85% 29.86 0.0
05 06:15 NW 3 10.00 Fair CLR 41.9 36.5 81% 29.86 0.0
05 05:55 Calm 10.00 Fair CLR 43 37.6 81% 29.86 0.0
05 05:35 W 3 10.00 Fair CLR 43.9 37.6 79% 29.86 0.0
05 05:15 W 3 10.00 Fair CLR 45.5 38.1 76% 29.86 0.0
05 04:55 Calm 10.00 Fair CLR 45 38.3 78% 29.86 0.0
05 04:35 NW 5 10.00 Fair CLR 45.1 37.6 75% 43 29.86 0.0
05 04:15 NW 5 10.00 Fair CLR 45.5 39 78% 44 29.85 0.0
05 03:55 NW 3 10.00 Fair CLR 44.6 41.2 88% 29.84 0.0
05 03:35 NW 5 10.00 Partly Cloudy SCT120 46.4 40.8 81% 45 29.84 0.0
05 03:15 NW 6 10.00 Fair CLR 46.9 41 80% 45 29.84 0.0
05 02:55 W 5 10.00 Partly Cloudy SCT110 47.3 40.6 78% 46 29.82 0.0
05 02:35 W 5 10.00 Mostly Cloudy BKN110 47.5 41.5 80% 46 29.82 0.0
05 02:15 W 5 10.00 Mostly Cloudy BKN110 47.3 42.3 83% 46 29.82 0.0
05 01:55 Calm 10.00 Mostly Cloudy SCT095 BKN120 47.8 43 83% 29.81 0.0
05 01:35 Calm 10.00 Overcast OVC095 48.6 44.6 86% 29.8 0.0
05 01:15 Calm 10.00 Overcast OVC095 48.4 43.3 83% 29.82 0.0
05 00:55 W 3 10.00 Overcast SCT075 OVC095 48.4 42.4 63 48.2 80% 29.82 0.0 0.01 0.05
05 00:35 Calm 10.00 Light Rain BKN075 OVC095 49.1 41.9 76% 29.81 0.0
05 00:15 Calm 10.00 Overcast OVC085 48.2 43.3 83% 29.82 0.0
04 23:55 N 3 10.00 Light Rain BKN075 OVC095 49.1 42.3 77% 29.81 0.0 0.04
04 23:35 Calm 10.00 Overcast BKN075 OVC085 48.6 41.7 77% 29.82 0.0 0.03
04 23:15 Calm 7.00 Light Rain OVC080 49.3 38.5 66% 29.82 0.0 0.02
04 22:55 N 7 10.00 Light Rain SCT070 OVC090 51.3 36 56% 29.82 0.0
04 22:35 N 13 10.00 Light Rain SCT070 BKN090 OVC110 53.8 32.2 44% 29.82 0.0
04 22:15 N 9 10.00 Mostly Cloudy SCT090 BKN120 54.5 31.5 42% 29.81 0.0
04 21:55 N 13 G 16 10.00 Mostly Cloudy BKN120 54.9 30.7 40% 29.8 0.0
04 21:35 N 16 G 23 10.00 Partly Cloudy SCT120 55.4 29.8 38% 29.78 0.0
04 21:15 N 20 10.00 Fair CLR 55.4 29.5 37% 29.79 0.0
04 20:55 N 21 G 28 10.00 Partly Cloudy and Breezy SCT120 55.9 30 37% 29.78 0.0
04 20:35 N 25 G 30 10.00 Partly Cloudy and Breezy SCT120 57.2 30.4 36% 29.77 0.0
04 20:15 N 21 G 30 10.00 Fair and Breezy CLR 57.6 29.7 35% 29.76 0.0
04 19:55 N 23 G 32 10.00 Fair and Breezy CLR 58.8 30.2 34% 29.75 0.0
04 19:35 N 25 G 31 10.00 Fair and Breezy CLR 60.8 30.2 31% 29.75 0.0
04 19:15 N 22 G 28 10.00 Partly Cloudy and Breezy SCT110 61.5 29.7 30% 29.74 0.0
04 18:55 N 28 G 31 10.00 Fair and Windy CLR 63.9 30.7 77 63.9 29% 29.73 0.0
04 18:35 N 24 G 30 10.00 Fair and Breezy CLR 66 32 28% 29.71 0.0
04 18:15 N 18 G 29 10.00 Fair CLR 68.7 32.9 27% 29.7 0.0
04 17:55 N 20 G 29 10.00 Fair CLR 69.4 33.1 26% 29.69 0.0
04 17:35 N 20 G 29 10.00 Fair CLR 71.6 33.8 25% 29.67 0.0
04 17:15 N 23 G 28 10.00 Fair and Breezy CLR 71.8 33.6 25% 29.67 0.0
Date Time (cdt) Wind (mph) Vis. (mi.) Weather Sky Cond. Air Dwpt Max. Min. Relative Humidity Wind Chill (°F) Heat Index (°F) altimeter (in) sea level (mb) 1 hr 3 hr 6 hr
6 hour
Temperature (ºF) Pressure Precipitation (in)